createdAt,value
2017-01-12T00:00:21.503Z,4.36
2017-01-12T00:01:30.155Z,4.23
2017-01-12T00:02:38.813Z,4.15
2017-01-12T00:03:47.465Z,3.98
2017-01-12T00:04:56.123Z,4.08
2017-01-12T00:06:04.775Z,4.14
2017-01-12T00:07:13.432Z,4.11
2017-01-12T00:08:22.088Z,4.06
2017-01-12T00:09:30.751Z,4.06
2017-01-12T00:10:39.412Z,4.15
2017-01-12T00:11:48.072Z,4.12
2017-01-12T00:12:56.731Z,4.18
2017-01-12T00:14:05.386Z,4.04
2017-01-12T00:15:14.040Z,4.02
2017-01-12T00:16:22.695Z,4.16
2017-01-12T00:17:31.353Z,4.15
2017-01-12T00:18:40.010Z,4.16
2017-01-12T00:19:48.660Z,4.11
2017-01-12T00:20:57.317Z,4
2017-01-12T00:22:06.009Z,4.05
2017-01-12T00:23:14.673Z,3.84
2017-01-12T00:24:23.332Z,3.93
2017-01-12T00:25:31.990Z,3.88
2017-01-12T00:26:40.659Z,3.78
2017-01-12T00:27:49.321Z,3.7
2017-01-12T00:28:57.976Z,3.76
2017-01-12T00:30:06.630Z,3.93
2017-01-12T00:31:15.291Z,4.16
2017-01-12T00:32:23.944Z,4.14
2017-01-12T00:33:32.605Z,4.04
2017-01-12T00:34:41.257Z,4.05
2017-01-12T00:35:49.910Z,4.04
2017-01-12T00:36:58.564Z,4.2
2017-01-12T00:38:07.220Z,4.29
2017-01-12T00:39:15.876Z,4.33
2017-01-12T00:40:24.531Z,4.36
2017-01-12T00:41:33.185Z,4.33
2017-01-12T00:42:41.840Z,4.15
2017-01-12T00:43:50.496Z,4.08
2017-01-12T00:44:59.153Z,3.98
2017-01-12T00:46:07.813Z,4.06
2017-01-12T00:47:16.472Z,4.14
2017-01-12T00:48:25.130Z,4.06
2017-01-12T00:49:33.787Z,3.97
2017-01-12T00:50:42.444Z,4.05
2017-01-12T00:51:51.102Z,4.05
2017-01-12T00:52:59.759Z,4.27
2017-01-12T00:54:08.416Z,4.27
2017-01-12T00:55:17.069Z,4.3
2017-01-12T00:56:25.725Z,4.4
2017-01-12T00:57:34.383Z,4.33
2017-01-12T00:58:43.041Z,4.22
2017-01-12T00:59:51.694Z,4.14
2017-01-12T01:01:00.348Z,4.22
2017-01-12T01:02:09.005Z,4.05
2017-01-12T01:03:17.657Z,4.06
2017-01-12T01:04:26.315Z,4.12
2017-01-12T01:05:34.969Z,4.22
2017-01-12T01:06:43.633Z,4.24
2017-01-12T01:07:52.282Z,4.33
2017-01-12T01:09:00.934Z,4.36
2017-01-12T01:10:09.598Z,4.24
2017-01-12T01:11:18.255Z,4.36
2017-01-12T01:12:26.906Z,4.34
2017-01-12T01:13:35.581Z,4.22
2017-01-12T01:14:44.235Z,4.23
2017-01-12T01:15:52.888Z,4.16
2017-01-12T01:17:01.544Z,4.11
2017-01-12T01:18:10.202Z,4.08
2017-01-12T01:19:18.863Z,4.06
2017-01-12T01:20:27.522Z,4.05
2017-01-12T01:21:36.564Z,4.2
2017-01-12T01:22:45.242Z,4.16
2017-01-12T01:23:53.897Z,4.26
2017-01-12T01:25:02.544Z,4.16
2017-01-12T01:26:11.200Z,4.22
2017-01-12T01:27:19.866Z,4.04
2017-01-12T01:28:28.520Z,4.02
2017-01-12T01:29:37.185Z,4.12
2017-01-12T01:30:45.842Z,4.14
2017-01-12T01:31:54.495Z,4.11
2017-01-12T01:33:03.147Z,4.18
2017-01-12T01:34:11.797Z,4.12
2017-01-12T01:35:20.448Z,4.22
2017-01-12T01:36:29.106Z,4.26
2017-01-12T01:37:37.763Z,4.2
2017-01-12T01:38:46.423Z,4.12
2017-01-12T01:39:55.079Z,4.12
2017-01-12T01:41:03.733Z,4.14
2017-01-12T01:42:12.386Z,4.16
2017-01-12T01:43:21.041Z,4.09
2017-01-12T01:44:29.697Z,4.24
2017-01-12T01:45:38.356Z,4.26
2017-01-12T01:46:47.006Z,4.18
2017-01-12T01:47:55.662Z,4.05
2017-01-12T01:49:04.324Z,4.06
2017-01-12T01:50:12.983Z,4.06
2017-01-12T01:51:21.637Z,4.14
2017-01-12T01:52:30.291Z,4.15
2017-01-12T01:53:38.951Z,4.11
2017-01-12T01:54:47.622Z,4.14
2017-01-12T01:55:56.278Z,4.02
2017-01-12T01:57:04.933Z,4.04
2017-01-12T01:58:13.622Z,3.98
2017-01-12T01:59:22.305Z,4.04
2017-01-12T02:00:30.958Z,4.08
2017-01-12T02:01:39.617Z,4.08
2017-01-12T02:02:48.279Z,4.09
2017-01-12T02:03:56.941Z,4.24
2017-01-12T02:05:05.596Z,4.09
2017-01-12T02:06:14.249Z,4.14
2017-01-12T02:07:22.903Z,4.06
2017-01-12T02:08:31.557Z,4.08
2017-01-12T02:09:40.215Z,4.23
2017-01-12T02:10:48.873Z,4.34
2017-01-12T02:11:57.529Z,4.42
2017-01-12T02:13:06.186Z,4.45
2017-01-12T02:14:14.849Z,4.65
2017-01-12T02:15:23.509Z,4.54
2017-01-12T02:16:32.164Z,4.72
2017-01-12T02:17:40.820Z,4.65
2017-01-12T02:18:49.481Z,4.72
2017-01-12T02:19:58.133Z,4.63
2017-01-12T02:21:06.788Z,4.66
2017-01-12T02:22:15.449Z,4.75
2017-01-12T02:23:24.104Z,4.72
2017-01-12T02:24:32.761Z,4.67
2017-01-12T02:25:41.421Z,4.77
2017-01-12T02:26:50.075Z,4.77
2017-01-12T02:27:58.768Z,4.82
2017-01-12T02:29:07.421Z,4.82
2017-01-12T02:30:16.074Z,4.77
2017-01-12T02:31:24.730Z,4.78
2017-01-12T02:32:33.384Z,4.86
2017-01-12T02:33:42.037Z,4.96
2017-01-12T02:34:50.691Z,4.97
2017-01-12T02:35:59.339Z,4.96
2017-01-12T02:37:07.997Z,4.84
2017-01-12T02:38:16.661Z,4.8
2017-01-12T02:39:25.315Z,4.73
2017-01-12T02:40:33.966Z,4.72
2017-01-12T02:41:42.620Z,4.52
2017-01-12T02:42:51.280Z,4.62
2017-01-12T02:43:59.933Z,4.66
2017-01-12T02:45:08.623Z,4.72
2017-01-12T02:46:17.282Z,4.67
2017-01-12T02:47:25.939Z,4.69
2017-01-12T02:48:34.597Z,4.55
2017-01-12T02:49:43.249Z,4.63
2017-01-12T02:50:51.904Z,4.59
2017-01-12T02:52:00.563Z,4.52
2017-01-12T02:53:09.220Z,4.62
2017-01-12T02:54:17.880Z,4.69
2017-01-12T02:55:26.564Z,4.69
2017-01-12T02:56:35.226Z,4.63
2017-01-12T02:57:43.883Z,4.73
2017-01-12T02:58:52.537Z,4.82
2017-01-12T03:00:01.198Z,4.75
2017-01-12T03:01:10.247Z,4.86
2017-01-12T03:02:19.277Z,4.91
2017-01-12T03:03:27.939Z,4.92
2017-01-12T03:04:36.598Z,4.85
2017-01-12T03:05:45.259Z,4.72
2017-01-12T03:06:53.911Z,4.67
2017-01-12T03:08:02.580Z,4.44
2017-01-12T03:09:11.271Z,4.51
2017-01-12T03:10:19.929Z,4.5
2017-01-12T03:11:28.584Z,4.45
2017-01-12T03:12:37.244Z,4.52
2017-01-12T03:13:45.897Z,4.42
2017-01-12T03:14:54.554Z,4.52
2017-01-12T03:16:03.206Z,4.73
2017-01-12T03:17:11.862Z,4.69
2017-01-12T03:18:20.524Z,4.7
2017-01-12T03:19:29.177Z,4.85
2017-01-12T03:20:37.836Z,4.82
2017-01-12T03:21:46.497Z,4.86
2017-01-12T03:22:55.158Z,4.88
2017-01-12T03:24:03.818Z,4.92
2017-01-12T03:25:12.470Z,4.99
2017-01-12T03:26:21.122Z,4.85
2017-01-12T03:27:29.810Z,4.96
2017-01-12T03:28:38.494Z,4.85
2017-01-12T03:29:47.156Z,4.97
2017-01-12T03:30:55.815Z,4.96
2017-01-12T03:32:04.473Z,4.96
2017-01-12T03:33:13.132Z,4.94
2017-01-12T03:34:21.789Z,4.92
2017-01-12T03:35:30.440Z,5
2017-01-12T03:36:39.091Z,5
2017-01-12T03:37:47.748Z,5
2017-01-12T03:38:56.406Z,5.03
2017-01-12T03:40:05.060Z,5.1
2017-01-12T03:41:13.716Z,5.02
2017-01-12T03:42:22.380Z,5.02
2017-01-12T03:43:31.037Z,5.06
2017-01-12T03:44:39.691Z,5.06
2017-01-12T03:45:48.348Z,4.97
2017-01-12T03:46:57.003Z,4.96
2017-01-12T03:48:05.662Z,4.99
2017-01-12T03:49:14.316Z,4.96
2017-01-12T03:50:22.979Z,4.92
2017-01-12T03:51:31.635Z,4.88
2017-01-12T03:52:40.292Z,4.77
2017-01-12T03:53:48.955Z,4.88
2017-01-12T03:54:57.611Z,4.88
2017-01-12T03:56:06.270Z,4.96
2017-01-12T03:57:14.929Z,4.85
2017-01-12T03:58:23.588Z,4.89
2017-01-12T03:59:32.250Z,4.88
2017-01-12T04:00:40.904Z,4.7
2017-01-12T04:01:49.561Z,4.75
2017-01-12T04:02:58.231Z,4.72
2017-01-12T04:04:06.889Z,4.73
2017-01-12T04:05:15.542Z,4.75
2017-01-12T04:06:24.227Z,4.73
2017-01-12T04:07:32.877Z,4.7
2017-01-12T04:08:41.533Z,4.7
2017-01-12T04:09:50.186Z,4.73
2017-01-12T04:10:58.844Z,4.67
2017-01-12T04:12:07.506Z,4.72
2017-01-12T04:13:16.162Z,4.8
2017-01-12T04:14:24.818Z,4.72
2017-01-12T04:15:33.475Z,4.84
2017-01-12T04:16:42.161Z,4.82
2017-01-12T04:17:50.819Z,4.91
2017-01-12T04:18:59.480Z,4.96
2017-01-12T04:20:08.171Z,4.91
2017-01-12T04:21:17.211Z,4.99
2017-01-12T04:22:25.874Z,5.09
2017-01-12T04:23:34.537Z,5
2017-01-12T04:24:43.204Z,4.97
2017-01-12T04:25:51.860Z,5
2017-01-12T04:27:00.517Z,4.91
2017-01-12T04:28:09.174Z,5.03
2017-01-12T04:29:17.834Z,5.07
2017-01-12T04:30:26.492Z,5.03
2017-01-12T04:31:35.151Z,5.04
2017-01-12T04:32:43.836Z,4.99
2017-01-12T04:33:52.510Z,4.96
2017-01-12T04:35:01.171Z,4.89
2017-01-12T04:36:09.825Z,4.78
2017-01-12T04:37:18.481Z,4.75
2017-01-12T04:38:27.138Z,4.66
2017-01-12T04:39:35.792Z,4.6
2017-01-12T04:40:44.464Z,4.45
2017-01-12T04:41:53.119Z,4.33
2017-01-12T04:43:01.767Z,4.36
2017-01-12T04:44:10.426Z,4.37
2017-01-12T04:45:19.107Z,4.37
2017-01-12T04:46:27.763Z,4.36
2017-01-12T04:47:36.416Z,4.47
2017-01-12T04:48:45.074Z,4.36
2017-01-12T04:49:53.729Z,4.37
2017-01-12T04:51:02.390Z,4.37
2017-01-12T04:52:11.055Z,4.47
2017-01-12T04:53:19.713Z,4.42
2017-01-12T04:54:28.371Z,4.34
2017-01-12T04:55:37.026Z,4.36
2017-01-12T04:56:45.682Z,4.23
2017-01-12T04:57:54.336Z,4.14
2017-01-12T04:59:02.990Z,4.14
2017-01-12T05:00:11.644Z,4.09
2017-01-12T05:01:20.299Z,4.22
2017-01-12T05:02:28.959Z,4.24
2017-01-12T05:03:37.609Z,4.27
2017-01-12T05:04:46.264Z,4.22
2017-01-12T05:05:54.923Z,4.26
2017-01-12T05:07:03.582Z,4.16
2017-01-12T05:08:12.230Z,4.14
2017-01-12T05:09:20.887Z,4.09
2017-01-12T05:10:29.538Z,4.02
2017-01-12T05:11:38.198Z,4
2017-01-12T05:12:46.856Z,3.94
2017-01-12T05:13:55.509Z,3.93
2017-01-12T05:15:04.168Z,3.86
2017-01-12T05:16:12.827Z,3.69
2017-01-12T05:17:21.487Z,3.7
2017-01-12T05:18:30.178Z,3.68
2017-01-12T05:19:38.831Z,3.78
2017-01-12T05:20:47.494Z,3.76
2017-01-12T05:21:56.151Z,3.86
2017-01-12T05:23:04.813Z,4
2017-01-12T05:24:13.474Z,4
2017-01-12T05:25:22.135Z,4
2017-01-12T05:26:30.786Z,4.05
2017-01-12T05:27:39.441Z,4.04
2017-01-12T05:28:48.091Z,4.14
2017-01-12T05:29:56.748Z,4.14
2017-01-12T05:31:05.405Z,4.08
2017-01-12T05:32:14.064Z,4.02
2017-01-12T05:33:22.720Z,3.98
2017-01-12T05:34:31.384Z,4.08
2017-01-12T05:35:40.034Z,4.08
2017-01-12T05:36:48.689Z,4.09
2017-01-12T05:37:57.383Z,4.02
2017-01-12T05:39:06.036Z,3.88
2017-01-12T05:40:14.698Z,3.93
2017-01-12T05:41:23.355Z,3.87
2017-01-12T05:42:32.014Z,3.93
2017-01-12T05:43:40.669Z,3.94
2017-01-12T05:44:49.326Z,3.96
2017-01-12T05:45:57.988Z,3.96
2017-01-12T05:47:06.659Z,3.96
2017-01-12T05:48:15.310Z,3.96
2017-01-12T05:49:23.969Z,3.96
2017-01-12T05:50:32.634Z,3.87
2017-01-12T05:51:41.291Z,3.97
2017-01-12T05:52:50.334Z,4
2017-01-12T05:53:58.985Z,3.87
2017-01-12T05:55:07.636Z,3.78
2017-01-12T05:56:16.289Z,3.73
2017-01-12T05:57:24.943Z,3.68
2017-01-12T05:58:33.598Z,3.72
2017-01-12T05:59:42.254Z,3.68
2017-01-12T06:00:50.920Z,3.57
2017-01-12T06:01:59.597Z,3.51
2017-01-12T06:03:08.255Z,3.33
2017-01-12T06:04:16.912Z,3.52
2017-01-12T06:05:25.571Z,3.62
2017-01-12T06:06:34.255Z,3.66
2017-01-12T06:07:42.918Z,3.54
2017-01-12T06:08:51.580Z,3.39
2017-01-12T06:10:00.236Z,3.35
2017-01-12T06:11:08.890Z,3.29
2017-01-12T06:12:17.543Z,3.26
2017-01-12T06:13:26.206Z,3.2
2017-01-12T06:14:34.862Z,3.13
2017-01-12T06:15:43.547Z,3.43
2017-01-12T06:16:52.202Z,3.54
2017-01-12T06:18:00.857Z,3.32
2017-01-12T06:19:09.522Z,3.4
2017-01-12T06:20:18.182Z,3.4
2017-01-12T06:21:26.843Z,3.26
2017-01-12T06:22:35.521Z,3.33
2017-01-12T06:23:44.169Z,3.24
2017-01-12T06:24:52.825Z,3.39
2017-01-12T06:26:01.486Z,3.42
2017-01-12T06:27:10.140Z,3.4
2017-01-12T06:28:18.793Z,3.39
2017-01-12T06:29:27.453Z,3.29
2017-01-12T06:30:36.110Z,3.28
2017-01-12T06:31:44.769Z,3.21
2017-01-12T06:32:53.430Z,3.18
2017-01-12T06:34:02.090Z,3.11
2017-01-12T06:35:10.742Z,3.21
2017-01-12T06:36:19.397Z,3.14
2017-01-12T06:37:28.059Z,3.08
2017-01-12T06:38:36.717Z,3.05
2017-01-12T06:39:45.370Z,3.13
2017-01-12T06:40:54.031Z,3.11
2017-01-12T06:42:02.688Z,2.99
2017-01-12T06:43:11.339Z,3.08
2017-01-12T06:44:19.995Z,3.28
2017-01-12T06:45:28.652Z,3.24
2017-01-12T06:46:37.316Z,3.24
2017-01-12T06:47:45.968Z,3.32
2017-01-12T06:48:54.627Z,3.36
2017-01-12T06:50:03.287Z,3.33
2017-01-12T06:51:11.939Z,3.26
2017-01-12T06:52:20.590Z,3.28
2017-01-12T06:53:29.251Z,3.28
2017-01-12T06:54:37.910Z,3.31
2017-01-12T06:55:46.567Z,3.29
2017-01-12T06:56:55.222Z,3.36
2017-01-12T06:58:03.878Z,3.36
2017-01-12T06:59:12.532Z,3.43
2017-01-12T07:00:21.200Z,3.39
2017-01-12T07:01:29.860Z,3.58
2017-01-12T07:02:38.525Z,3.58
2017-01-12T07:03:47.179Z,3.45
2017-01-12T07:04:55.834Z,3.42
2017-01-12T07:06:04.487Z,3.39
2017-01-12T07:07:13.142Z,3.48
2017-01-12T07:08:21.795Z,3.4
2017-01-12T07:09:30.455Z,3.4
2017-01-12T07:10:39.111Z,3.51
2017-01-12T07:11:47.760Z,3.55
2017-01-12T07:12:56.425Z,3.68
2017-01-12T07:14:05.089Z,3.66
2017-01-12T07:15:13.744Z,3.43
2017-01-12T07:16:22.396Z,3.43
2017-01-12T07:17:31.053Z,3.51
2017-01-12T07:18:39.710Z,3.65
2017-01-12T07:19:48.366Z,3.68
2017-01-12T07:20:57.022Z,3.69
2017-01-12T07:22:05.672Z,3.7
2017-01-12T07:23:14.334Z,3.72
2017-01-12T07:24:22.995Z,3.6
2017-01-12T07:25:31.651Z,3.52
2017-01-12T07:26:40.305Z,3.66
2017-01-12T07:27:48.967Z,3.72
2017-01-12T07:28:57.624Z,3.7
2017-01-12T07:30:06.280Z,3.62
2017-01-12T07:31:14.938Z,3.52
2017-01-12T07:32:23.607Z,3.57
2017-01-12T07:33:32.261Z,3.55
2017-01-12T07:34:40.918Z,3.39
2017-01-12T07:35:49.593Z,3.55
2017-01-12T07:36:58.258Z,3.51
2017-01-12T07:38:06.912Z,3.4
2017-01-12T07:39:15.577Z,3.31
2017-01-12T07:40:24.227Z,3.31
2017-01-12T07:41:32.905Z,3.48
2017-01-12T07:42:41.556Z,3.39
2017-01-12T07:43:50.211Z,3.35
2017-01-12T07:44:58.886Z,3.21
2017-01-12T07:46:07.534Z,3.24
2017-01-12T07:47:16.191Z,3.26
2017-01-12T07:48:24.844Z,3.32
2017-01-12T07:49:33.501Z,3.29
2017-01-12T07:50:42.159Z,3.24
2017-01-12T07:51:50.810Z,3.24
2017-01-12T07:52:59.465Z,3.26
2017-01-12T07:54:08.135Z,3.21
2017-01-12T07:55:17.181Z,3.11
2017-01-12T07:56:25.839Z,3.24
2017-01-12T07:57:34.500Z,3.28
2017-01-12T07:58:43.159Z,3.39
2017-01-12T07:59:51.818Z,3.36
2017-01-12T08:01:00.508Z,3.26
2017-01-12T08:02:09.172Z,3.24
2017-01-12T08:03:17.857Z,3.17
2017-01-12T08:04:26.513Z,3.28
2017-01-12T08:05:35.173Z,3.29
2017-01-12T08:06:43.835Z,3.36
2017-01-12T08:07:52.492Z,3.45
2017-01-12T08:09:01.152Z,3.42
2017-01-12T08:10:09.807Z,3.26
2017-01-12T08:11:18.464Z,3.11
2017-01-12T08:12:27.123Z,3.17
2017-01-12T08:13:35.783Z,3.32
2017-01-12T08:14:44.445Z,3.21
2017-01-12T08:15:53.100Z,3.23
2017-01-12T08:17:01.781Z,3.31
2017-01-12T08:18:10.439Z,3.23
2017-01-12T08:19:19.096Z,3.2
2017-01-12T08:20:27.788Z,3.29
2017-01-12T08:21:36.454Z,3.31
2017-01-12T08:22:45.113Z,3.4
2017-01-12T08:23:53.767Z,3.36
2017-01-12T08:25:02.432Z,3.26
2017-01-12T08:26:11.087Z,3.4
2017-01-12T08:27:19.746Z,3.32
2017-01-12T08:28:28.400Z,3.42
2017-01-12T08:29:37.062Z,3.31
2017-01-12T08:30:45.720Z,3.39
2017-01-12T08:31:54.373Z,3.29
2017-01-12T08:33:03.035Z,3.28
2017-01-12T08:34:11.692Z,3.33
2017-01-12T08:35:20.349Z,3.42
2017-01-12T08:36:29.012Z,3.45
2017-01-12T08:37:37.665Z,3.43
2017-01-12T08:38:46.334Z,3.36
2017-01-12T08:39:54.990Z,3.42
2017-01-12T08:41:03.654Z,3.36
2017-01-12T08:42:12.322Z,3.4
2017-01-12T08:43:20.978Z,3.43
2017-01-12T08:44:29.635Z,3.39
2017-01-12T08:45:38.292Z,3.33
2017-01-12T08:46:46.948Z,3.28
2017-01-12T08:47:55.607Z,3.42
2017-01-12T08:49:04.266Z,3.52
2017-01-12T08:50:12.923Z,3.47
2017-01-12T08:51:21.581Z,3.4
2017-01-12T08:52:30.241Z,3.39
2017-01-12T08:53:38.898Z,3.54
2017-01-12T08:54:47.563Z,3.51
2017-01-12T08:55:56.228Z,3.78
2017-01-12T08:57:04.895Z,3.69
2017-01-12T08:58:13.553Z,3.58
2017-01-12T08:59:22.211Z,3.7
2017-01-12T09:00:30.881Z,3.69
2017-01-12T09:01:39.538Z,3.68
2017-01-12T09:02:48.198Z,3.69
2017-01-12T09:03:56.852Z,3.79
2017-01-12T09:05:05.508Z,3.79
2017-01-12T09:06:14.172Z,3.79
2017-01-12T09:07:22.833Z,3.79
2017-01-12T09:08:31.493Z,3.91
2017-01-12T09:09:40.150Z,3.91
2017-01-12T09:10:48.806Z,3.8
2017-01-12T09:11:57.467Z,3.93
2017-01-12T09:13:06.122Z,3.93
2017-01-12T09:14:14.782Z,4.02
2017-01-12T09:15:23.831Z,3.96
2017-01-12T09:16:32.491Z,3.94
2017-01-12T09:17:41.152Z,3.94
2017-01-12T09:18:49.810Z,3.97
2017-01-12T09:19:58.466Z,3.94
2017-01-12T09:21:07.133Z,3.96
2017-01-12T09:22:15.791Z,4.06
2017-01-12T09:23:24.446Z,4
2017-01-12T09:24:33.103Z,4.15
2017-01-12T09:25:41.760Z,4.11
2017-01-12T09:26:50.417Z,4.04
2017-01-12T09:27:59.076Z,3.98
2017-01-12T09:29:07.736Z,4.12
2017-01-12T09:30:16.404Z,4.12
2017-01-12T09:31:25.064Z,4.18
2017-01-12T09:32:33.741Z,4.12
2017-01-12T09:33:42.397Z,4.15
2017-01-12T09:34:51.057Z,4.2
2017-01-12T09:35:59.727Z,4.16
2017-01-12T09:37:08.386Z,4.23
2017-01-12T09:38:17.048Z,4.22
2017-01-12T09:39:25.704Z,4.24
2017-01-12T09:40:34.362Z,4.33
2017-01-12T09:41:43.026Z,4.41
2017-01-12T09:42:51.687Z,4.45
2017-01-12T09:44:00.343Z,4.47
2017-01-12T09:45:09.008Z,4.51
2017-01-12T09:46:17.669Z,4.62
2017-01-12T09:47:26.337Z,4.73
2017-01-12T09:48:34.993Z,4.77
2017-01-12T09:49:43.655Z,4.72
2017-01-12T09:50:52.313Z,4.82
2017-01-12T09:52:00.970Z,4.89
2017-01-12T09:53:09.632Z,4.92
2017-01-12T09:54:18.296Z,5.04
2017-01-12T09:55:26.962Z,5.06
2017-01-12T09:56:35.626Z,5.07
2017-01-12T09:57:44.315Z,5.06
2017-01-12T09:58:52.975Z,5.15
2017-01-12T10:00:01.638Z,5.15
2017-01-12T10:01:10.300Z,5.2
2017-01-12T10:02:18.965Z,5.3
2017-01-12T10:03:27.652Z,5.28
2017-01-12T10:04:36.317Z,5.35
2017-01-12T10:05:44.984Z,5.39
2017-01-12T10:06:53.643Z,5.31
2017-01-12T10:08:02.303Z,5.4
2017-01-12T10:09:10.965Z,5.35
2017-01-12T10:10:19.632Z,5.35
2017-01-12T10:11:28.292Z,5.36
2017-01-12T10:12:36.983Z,5.25
2017-01-12T10:13:45.642Z,5.39
2017-01-12T10:14:54.298Z,5.33
2017-01-12T10:16:03.883Z,5.28
2017-01-12T10:17:12.544Z,5.24
2017-01-12T10:18:21.213Z,5.2
2017-01-12T10:19:29.869Z,5.15
2017-01-12T10:20:38.523Z,5.13
2017-01-12T10:21:47.183Z,5.2
2017-01-12T10:22:55.852Z,5.1
2017-01-12T10:24:04.509Z,5.1
2017-01-12T10:25:13.166Z,5.13
2017-01-12T10:26:21.836Z,5.07
2017-01-12T10:27:30.499Z,5.02
2017-01-12T10:28:39.193Z,5
2017-01-12T10:29:47.851Z,4.91
2017-01-12T10:30:56.513Z,4.91
2017-01-12T10:32:05.175Z,4.75
2017-01-12T10:33:13.836Z,4.8
2017-01-12T10:34:22.512Z,4.77
2017-01-12T10:35:31.172Z,4.77
2017-01-12T10:36:39.837Z,4.69
2017-01-12T10:37:48.491Z,4.66
2017-01-12T10:38:57.150Z,4.7
2017-01-12T10:40:06.192Z,4.69
2017-01-12T10:41:14.887Z,4.77
2017-01-12T10:42:23.548Z,4.7
2017-01-12T10:43:32.207Z,4.8
2017-01-12T10:44:40.867Z,5.02
2017-01-12T10:45:49.529Z,5.1
2017-01-12T10:46:58.188Z,5.07
2017-01-12T10:48:06.844Z,5.12
2017-01-12T10:49:15.503Z,5.1
2017-01-12T10:50:24.161Z,5.22
2017-01-12T10:51:32.828Z,5.33
2017-01-12T10:52:41.490Z,5.35
2017-01-12T10:53:50.155Z,5.35
2017-01-12T10:54:58.817Z,5.42
2017-01-12T10:56:07.483Z,5.46
2017-01-12T10:57:16.150Z,5.53
2017-01-12T10:58:24.818Z,5.57
2017-01-12T10:59:33.478Z,5.65
2017-01-12T11:00:42.138Z,5.68
2017-01-12T11:01:50.803Z,5.76
2017-01-12T11:02:59.463Z,5.72
2017-01-12T11:04:08.124Z,5.78
2017-01-12T11:05:16.779Z,5.78
2017-01-12T11:06:25.440Z,5.82
2017-01-12T11:07:34.100Z,5.89
2017-01-12T11:08:42.768Z,5.89
2017-01-12T11:09:51.430Z,5.89
2017-01-12T11:11:00.085Z,5.93
2017-01-12T11:12:08.745Z,5.99
2017-01-12T11:13:17.419Z,6.08
2017-01-12T11:14:26.082Z,5.86
2017-01-12T11:15:34.744Z,5.93
2017-01-12T11:16:43.410Z,5.81
2017-01-12T11:17:52.074Z,5.86
2017-01-12T11:19:00.729Z,5.94
2017-01-12T11:20:09.393Z,6.01
2017-01-12T11:21:18.056Z,5.99
2017-01-12T11:22:26.718Z,6.01
2017-01-12T11:23:35.377Z,6.06
2017-01-12T11:24:44.039Z,5.96
2017-01-12T11:25:52.700Z,6.14
2017-01-12T11:27:01.362Z,6.14
2017-01-12T11:28:10.028Z,6.08
2017-01-12T11:29:18.696Z,6.04
2017-01-12T11:30:28.386Z,6.11
2017-01-12T11:31:37.043Z,6.06
2017-01-12T11:32:45.702Z,6.03
2017-01-12T11:33:54.361Z,6
2017-01-12T11:35:03.022Z,6.01
2017-01-12T11:36:11.686Z,5.85
2017-01-12T11:37:20.347Z,5.83
2017-01-12T11:38:29.006Z,5.85
2017-01-12T11:39:37.673Z,5.76
2017-01-12T11:40:46.344Z,5.82
2017-01-12T11:41:55.010Z,5.74
2017-01-12T11:43:03.675Z,5.76
2017-01-12T11:44:12.340Z,5.9
2017-01-12T11:45:20.998Z,5.75
2017-01-12T11:46:29.660Z,5.78
2017-01-12T11:47:38.330Z,5.91
2017-01-12T11:48:47.021Z,5.9
2017-01-12T11:49:55.676Z,5.83
2017-01-12T11:51:04.342Z,5.83
2017-01-12T11:52:13.030Z,5.75
2017-01-12T11:53:21.697Z,5.79
2017-01-12T11:54:30.359Z,5.85
2017-01-12T11:55:39.016Z,5.81
2017-01-12T11:56:47.672Z,5.99
2017-01-12T11:57:56.333Z,6
2017-01-12T11:59:04.993Z,6.09
2017-01-12T12:00:13.664Z,6.11
2017-01-12T12:01:22.325Z,6.19
2017-01-12T12:02:30.982Z,6.12
2017-01-12T12:03:39.641Z,6.19
2017-01-12T12:04:48.303Z,6.21
2017-01-12T12:05:56.974Z,6.17
2017-01-12T12:07:05.641Z,6.21
2017-01-12T12:08:14.304Z,6.19
2017-01-12T12:09:22.958Z,6.28
2017-01-12T12:10:31.622Z,6.31
2017-01-12T12:11:40.280Z,6.37
2017-01-12T12:12:48.978Z,6.36
2017-01-12T12:13:57.638Z,6.46
2017-01-12T12:15:06.303Z,6.44
2017-01-12T12:16:14.961Z,6.55
2017-01-12T12:17:23.622Z,6.58
2017-01-12T12:18:32.287Z,6.58
2017-01-12T12:19:40.955Z,6.51
2017-01-12T12:20:49.616Z,6.61
2017-01-12T12:21:58.280Z,6.54
2017-01-12T12:23:06.938Z,6.64
2017-01-12T12:24:15.600Z,6.64
2017-01-12T12:25:24.260Z,6.73
2017-01-12T12:26:33.624Z,6.8
2017-01-12T12:27:42.294Z,6.92
2017-01-12T12:28:50.974Z,6.99
2017-01-12T12:29:59.640Z,7.13
2017-01-12T12:31:08.302Z,7.06
2017-01-12T12:32:16.971Z,7.16
2017-01-12T12:33:26.045Z,7.28
2017-01-12T12:34:34.711Z,7.24
2017-01-12T12:35:43.377Z,7.32
2017-01-12T12:36:52.067Z,7.39
2017-01-12T12:38:00.739Z,7.24
2017-01-12T12:39:09.411Z,7.2
2017-01-12T12:40:18.078Z,7.13
2017-01-12T12:41:26.738Z,7.13
2017-01-12T12:42:35.395Z,7.07
2017-01-12T12:43:44.063Z,6.95
2017-01-12T12:44:52.726Z,6.91
2017-01-12T12:46:01.388Z,6.8
2017-01-12T12:47:10.091Z,6.76
2017-01-12T12:48:18.783Z,6.76
2017-01-12T12:49:27.442Z,6.8
2017-01-12T12:50:36.135Z,6.94
2017-01-12T12:51:44.807Z,6.87
2017-01-12T12:52:53.469Z,6.87
2017-01-12T12:54:02.134Z,6.99
2017-01-12T12:55:10.802Z,6.98
2017-01-12T12:56:19.467Z,7.05
2017-01-12T12:57:28.122Z,6.97
2017-01-12T12:58:36.781Z,7.07
2017-01-12T12:59:45.442Z,6.88
2017-01-12T13:00:54.110Z,6.91
2017-01-12T13:02:02.760Z,6.95
2017-01-12T13:03:11.416Z,6.94
2017-01-12T13:04:20.077Z,7.05
2017-01-12T13:05:28.741Z,6.98
2017-01-12T13:06:37.402Z,6.97
2017-01-12T13:07:46.066Z,7.1
2017-01-12T13:08:54.738Z,7.06
2017-01-12T13:10:03.402Z,6.95
2017-01-12T13:11:12.063Z,6.97
2017-01-12T13:12:20.725Z,6.89
2017-01-12T13:13:29.386Z,6.95
2017-01-12T13:14:38.048Z,6.95
2017-01-12T13:15:46.723Z,6.91
2017-01-12T13:16:55.388Z,6.91
2017-01-12T13:18:04.046Z,6.89
2017-01-12T13:19:12.706Z,6.94
2017-01-12T13:20:21.370Z,7.1
2017-01-12T13:21:30.054Z,6.95
2017-01-12T13:22:38.720Z,7.09
2017-01-12T13:23:47.765Z,6.98
2017-01-12T13:24:56.437Z,7.06
2017-01-12T13:26:05.484Z,6.91
2017-01-12T13:27:14.143Z,6.97
2017-01-12T13:28:22.834Z,6.95
2017-01-12T13:29:31.490Z,6.95
2017-01-12T13:30:40.152Z,6.98
2017-01-12T13:31:48.821Z,6.94
2017-01-12T13:32:57.480Z,6.97
2017-01-12T13:34:06.148Z,6.92
2017-01-12T13:35:14.809Z,6.89
2017-01-12T13:36:23.469Z,6.92
2017-01-12T13:37:32.522Z,6.91
2017-01-12T13:38:41.184Z,6.94
2017-01-12T13:39:49.863Z,6.88
2017-01-12T13:40:58.527Z,6.94
2017-01-12T13:42:07.191Z,6.91
2017-01-12T13:43:15.853Z,6.91
2017-01-12T13:44:24.515Z,6.88
2017-01-12T13:45:33.173Z,6.88
2017-01-12T13:46:41.837Z,6.87
2017-01-12T13:47:50.504Z,6.81
2017-01-12T13:48:59.168Z,6.8
2017-01-12T13:50:07.834Z,6.89
2017-01-12T13:51:16.493Z,6.89
2017-01-12T13:52:25.159Z,6.95
2017-01-12T13:53:33.826Z,6.89
2017-01-12T13:54:42.489Z,6.94
2017-01-12T13:55:51.143Z,6.94
2017-01-12T13:56:59.804Z,6.95
2017-01-12T13:58:08.465Z,6.91
2017-01-12T13:59:17.128Z,6.94
2017-01-12T14:00:25.802Z,6.94
2017-01-12T14:01:34.466Z,6.94
2017-01-12T14:02:43.126Z,6.89
2017-01-12T14:03:52.186Z,6.94
2017-01-12T14:05:00.858Z,6.95
2017-01-12T14:06:09.528Z,6.97
2017-01-12T14:07:18.195Z,6.89
2017-01-12T14:08:26.857Z,6.94
2017-01-12T14:09:35.547Z,6.92
2017-01-12T14:10:44.211Z,6.92
2017-01-12T14:11:52.869Z,6.95
2017-01-12T14:13:01.530Z,6.91
2017-01-12T14:14:10.222Z,6.87
2017-01-12T14:15:18.890Z,6.77
2017-01-12T14:16:27.550Z,6.8
2017-01-12T14:17:36.217Z,6.81
2017-01-12T14:18:44.878Z,6.79
2017-01-12T14:19:53.548Z,6.81
2017-01-12T14:21:02.210Z,6.84
2017-01-12T14:22:10.878Z,6.87
2017-01-12T14:23:19.548Z,6.8
2017-01-12T14:24:28.206Z,6.89
2017-01-12T14:25:36.865Z,6.88
2017-01-12T14:26:45.526Z,6.99
2017-01-12T14:27:54.213Z,6.92
2017-01-12T14:29:02.867Z,6.98
2017-01-12T14:30:11.530Z,6.97
2017-01-12T14:31:20.187Z,7.09
2017-01-12T14:32:28.879Z,7.13
2017-01-12T14:33:37.930Z,7.1
2017-01-12T14:34:46.591Z,7.07
2017-01-12T14:35:55.252Z,7.13
2017-01-12T14:37:03.914Z,7.24
2017-01-12T14:38:12.578Z,7.16
2017-01-12T14:39:21.252Z,7.25
2017-01-12T14:40:29.930Z,7.13
2017-01-12T14:41:38.623Z,7.13
2017-01-12T14:42:47.282Z,6.99
2017-01-12T14:43:55.944Z,6.99
2017-01-12T14:45:04.606Z,6.89
2017-01-12T14:46:13.268Z,6.87
2017-01-12T14:47:21.925Z,6.81
2017-01-12T14:48:30.595Z,6.73
2017-01-12T14:49:39.260Z,6.79
2017-01-12T14:50:47.916Z,6.73
2017-01-12T14:51:56.584Z,6.7
2017-01-12T14:53:05.248Z,6.76
2017-01-12T14:54:13.913Z,6.74
2017-01-12T14:55:22.574Z,6.73
2017-01-12T14:56:31.237Z,6.71
2017-01-12T14:57:39.903Z,6.61
2017-01-12T14:58:48.596Z,6.71
2017-01-12T14:59:57.252Z,6.64
2017-01-12T15:01:05.913Z,6.62
2017-01-12T15:02:14.580Z,6.69
2017-01-12T15:03:23.240Z,6.64
2017-01-12T15:04:31.910Z,6.52
2017-01-12T15:05:40.571Z,6.55
2017-01-12T15:06:49.226Z,6.61
2017-01-12T15:07:57.885Z,6.54
2017-01-12T15:09:06.545Z,6.64
2017-01-12T15:10:15.206Z,6.61
2017-01-12T15:11:23.865Z,6.48
2017-01-12T15:12:32.529Z,6.52
2017-01-12T15:13:41.200Z,6.46
2017-01-12T15:15:58.334Z,6.54
2017-01-12T15:17:06.998Z,6.51
2017-01-12T15:18:15.694Z,6.52